sensor_id;sensor_type;location;lat;lon;timestamp;temperature;humidity
8220;DHT22;4151;51.110;7.020;2023-04-15T00:00:23;8.00;99.90
8220;DHT22;4151;51.110;7.020;2023-04-15T00:02:50;8.00;99.90
8220;DHT22;4151;51.110;7.020;2023-04-15T00:05:15;8.00;99.90
8220;DHT22;4151;51.110;7.020;2023-04-15T00:07:41;8.10;99.90
8220;DHT22;4151;51.110;7.020;2023-04-15T00:10:07;8.10;99.90
8220;DHT22;4151;51.110;7.020;2023-04-15T00:12:33;8.30;99.90
8220;DHT22;4151;51.110;7.020;2023-04-15T00:14:59;8.40;99.90
8220;DHT22;4151;51.110;7.020;2023-04-15T00:17:24;8.40;99.90
8220;DHT22;4151;51.110;7.020;2023-04-15T00:19:50;8.40;99.90
8220;DHT22;4151;51.110;7.020;2023-04-15T00:22:15;8.40;99.90
8220;DHT22;4151;51.110;7.020;2023-04-15T00:24:42;8.40;99.90
8220;DHT22;4151;51.110;7.020;2023-04-15T00:27:07;8.50;99.90
8220;DHT22;4151;51.110;7.020;2023-04-15T00:29:33;8.50;99.90
8220;DHT22;4151;51.110;7.020;2023-04-15T00:31:59;8.50;99.90
8220;DHT22;4151;51.110;7.020;2023-04-15T00:34:26;8.50;99.90
8220;DHT22;4151;51.110;7.020;2023-04-15T00:36:52;8.50;99.90
8220;DHT22;4151;51.110;7.020;2023-04-15T00:39:17;8.60;99.90
8220;DHT22;4151;51.110;7.020;2023-04-15T00:41:43;8.60;99.90
8220;DHT22;4151;51.110;7.020;2023-04-15T00:44:10;8.60;99.90
8220;DHT22;4151;51.110;7.020;2023-04-15T00:46:36;8.60;99.90
8220;DHT22;4151;51.110;7.020;2023-04-15T00:49:06;8.50;99.90
8220;DHT22;4151;51.110;7.020;2023-04-15T00:51:33;8.50;99.90
8220;DHT22;4151;51.110;7.020;2023-04-15T00:54:04;8.50;99.90
8220;DHT22;4151;51.110;7.020;2023-04-15T00:56:30;8.50;99.90
8220;DHT22;4151;51.110;7.020;2023-04-15T00:58:58;8.50;99.90
8220;DHT22;4151;51.110;7.020;2023-04-15T01:01:25;8.50;99.90
8220;DHT22;4151;51.110;7.020;2023-04-15T01:03:51;8.50;99.90
8220;DHT22;4151;51.110;7.020;2023-04-15T01:06:17;8.40;99.90
8220;DHT22;4151;51.110;7.020;2023-04-15T01:08:43;8.50;99.90
8220;DHT22;4151;51.110;7.020;2023-04-15T01:11:11;8.40;99.90
8220;DHT22;4151;51.110;7.020;2023-04-15T01:13:37;8.40;99.90
8220;DHT22;4151;51.110;7.020;2023-04-15T01:16:03;8.40;99.90
8220;DHT22;4151;51.110;7.020;2023-04-15T01:18:29;8.40;99.90
8220;DHT22;4151;51.110;7.020;2023-04-15T01:20:56;8.40;99.90
8220;DHT22;4151;51.110;7.020;2023-04-15T01:23:21;8.40;99.90
8220;DHT22;4151;51.110;7.020;2023-04-15T01:25:48;8.40;99.90
8220;DHT22;4151;51.110;7.020;2023-04-15T01:28:14;8.40;99.90
8220;DHT22;4151;51.110;7.020;2023-04-15T01:30:40;8.30;99.90
8220;DHT22;4151;51.110;7.020;2023-04-15T01:33:06;8.20;99.90
8220;DHT22;4151;51.110;7.020;2023-04-15T01:35:31;8.20;99.90
8220;DHT22;4151;51.110;7.020;2023-04-15T01:38:04;8.20;99.90
8220;DHT22;4151;51.110;7.020;2023-04-15T01:40:30;8.20;99.90
8220;DHT22;4151;51.110;7.020;2023-04-15T01:42:56;8.20;99.90
8220;DHT22;4151;51.110;7.020;2023-04-15T01:45:22;8.10;99.90
8220;DHT22;4151;51.110;7.020;2023-04-15T01:47:47;8.10;99.90
8220;DHT22;4151;51.110;7.020;2023-04-15T01:50:13;8.00;99.90
8220;DHT22;4151;51.110;7.020;2023-04-15T01:52:40;8.00;99.90
8220;DHT22;4151;51.110;7.020;2023-04-15T01:55:06;8.00;99.90
8220;DHT22;4151;51.110;7.020;2023-04-15T01:57:33;7.90;99.90
8220;DHT22;4151;51.110;7.020;2023-04-15T01:59:58;7.70;99.90
8220;DHT22;4151;51.110;7.020;2023-04-15T02:02:24;7.50;99.90
8220;DHT22;4151;51.110;7.020;2023-04-15T02:04:50;7.30;99.90
8220;DHT22;4151;51.110;7.020;2023-04-15T02:07:15;7.00;99.90
8220;DHT22;4151;51.110;7.020;2023-04-15T02:09:41;6.70;99.90
8220;DHT22;4151;51.110;7.020;2023-04-15T02:12:08;6.40;99.90
8220;DHT22;4151;51.110;7.020;2023-04-15T02:14:33;6.10;99.90
8220;DHT22;4151;51.110;7.020;2023-04-15T02:16:59;5.90;99.90
8220;DHT22;4151;51.110;7.020;2023-04-15T02:19:34;5.80;99.90
8220;DHT22;4151;51.110;7.020;2023-04-15T02:22:00;5.70;99.90
8220;DHT22;4151;51.110;7.020;2023-04-15T02:24:29;5.70;99.90
8220;DHT22;4151;51.110;7.020;2023-04-15T02:26:56;5.70;99.90
8220;DHT22;4151;51.110;7.020;2023-04-15T02:29:21;5.60;99.90
8220;DHT22;4151;51.110;7.020;2023-04-15T02:31:48;5.50;99.90
8220;DHT22;4151;51.110;7.020;2023-04-15T02:34:13;5.40;99.90
8220;DHT22;4151;51.110;7.020;2023-04-15T02:36:39;5.30;99.90
8220;DHT22;4151;51.110;7.020;2023-04-15T02:39:05;5.20;99.90
8220;DHT22;4151;51.110;7.020;2023-04-15T02:41:31;5.10;99.90
8220;DHT22;4151;51.110;7.020;2023-04-15T02:43:56;5.10;99.90
8220;DHT22;4151;51.110;7.020;2023-04-15T02:46:22;5.10;99.90
8220;DHT22;4151;51.110;7.020;2023-04-15T02:48:48;5.00;99.90
8220;DHT22;4151;51.110;7.020;2023-04-15T02:53:41;4.90;99.90
8220;DHT22;4151;51.110;7.020;2023-04-15T02:56:06;4.90;99.90
8220;DHT22;4151;51.110;7.020;2023-04-15T02:58:34;4.90;99.90
8220;DHT22;4151;51.110;7.020;2023-04-15T03:00:59;4.80;99.90
8220;DHT22;4151;51.110;7.020;2023-04-15T03:03:25;4.80;99.90
8220;DHT22;4151;51.110;7.020;2023-04-15T03:05:52;4.80;99.90
8220;DHT22;4151;51.110;7.020;2023-04-15T03:08:18;4.80;99.90
8220;DHT22;4151;51.110;7.020;2023-04-15T03:10:43;4.80;99.90
8220;DHT22;4151;51.110;7.020;2023-04-15T03:13:09;4.80;99.90
8220;DHT22;4151;51.110;7.020;2023-04-15T03:15:35;4.70;99.90
8220;DHT22;4151;51.110;7.020;2023-04-15T03:18:00;4.70;99.90
8220;DHT22;4151;51.110;7.020;2023-04-15T03:20:26;4.70;99.90
8220;DHT22;4151;51.110;7.020;2023-04-15T03:22:51;4.70;99.90
8220;DHT22;4151;51.110;7.020;2023-04-15T03:25:17;4.70;99.90
8220;DHT22;4151;51.110;7.020;2023-04-15T03:27:42;4.60;99.90
8220;DHT22;4151;51.110;7.020;2023-04-15T03:30:08;4.40;99.90
8220;DHT22;4151;51.110;7.020;2023-04-15T03:32:34;4.30;99.90
8220;DHT22;4151;51.110;7.020;2023-04-15T03:35:00;4.30;99.90
8220;DHT22;4151;51.110;7.020;2023-04-15T03:37:25;4.30;99.90
8220;DHT22;4151;51.110;7.020;2023-04-15T03:39:51;4.30;99.90
8220;DHT22;4151;51.110;7.020;2023-04-15T03:42:17;4.20;99.90
8220;DHT22;4151;51.110;7.020;2023-04-15T03:44:42;4.30;99.90
8220;DHT22;4151;51.110;7.020;2023-04-15T03:47:08;4.30;99.90
8220;DHT22;4151;51.110;7.020;2023-04-15T03:49:34;4.30;99.90
8220;DHT22;4151;51.110;7.020;2023-04-15T03:52:00;4.20;99.90
8220;DHT22;4151;51.110;7.020;2023-04-15T03:54:25;4.30;99.90
8220;DHT22;4151;51.110;7.020;2023-04-15T03:56:51;4.30;99.90
8220;DHT22;4151;51.110;7.020;2023-04-15T03:59:16;4.30;99.90
8220;DHT22;4151;51.110;7.020;2023-04-15T04:01:42;4.30;99.90
8220;DHT22;4151;51.110;7.020;2023-04-15T04:04:08;4.30;99.90
8220;DHT22;4151;51.110;7.020;2023-04-15T04:06:33;4.30;99.90
8220;DHT22;4151;51.110;7.020;2023-04-15T04:08:59;4.30;99.90
8220;DHT22;4151;51.110;7.020;2023-04-15T04:11:25;4.30;99.90
8220;DHT22;4151;51.110;7.020;2023-04-15T04:13:52;4.30;99.90
8220;DHT22;4151;51.110;7.020;2023-04-15T04:16:18;4.30;99.90
8220;DHT22;4151;51.110;7.020;2023-04-15T04:18:43;4.30;99.90
8220;DHT22;4151;51.110;7.020;2023-04-15T04:21:09;4.20;99.90
8220;DHT22;4151;51.110;7.020;2023-04-15T04:23:35;4.20;99.90
8220;DHT22;4151;51.110;7.020;2023-04-15T04:26:01;4.10;99.90
8220;DHT22;4151;51.110;7.020;2023-04-15T04:28:27;4.10;99.90
8220;DHT22;4151;51.110;7.020;2023-04-15T04:30:52;4.20;99.90
8220;DHT22;4151;51.110;7.020;2023-04-15T04:33:18;4.20;99.90
8220;DHT22;4151;51.110;7.020;2023-04-15T04:35:43;4.10;99.90
8220;DHT22;4151;51.110;7.020;2023-04-15T04:38:09;4.10;99.90
8220;DHT22;4151;51.110;7.020;2023-04-15T04:40:35;4.00;99.90
8220;DHT22;4151;51.110;7.020;2023-04-15T04:43:01;4.00;99.90
8220;DHT22;4151;51.110;7.020;2023-04-15T04:45:26;4.10;99.90
8220;DHT22;4151;51.110;7.020;2023-04-15T04:47:52;4.10;99.90
8220;DHT22;4151;51.110;7.020;2023-04-15T04:50:17;4.10;99.90
8220;DHT22;4151;51.110;7.020;2023-04-15T04:52:43;4.10;99.90
8220;DHT22;4151;51.110;7.020;2023-04-15T04:55:09;4.00;99.90
8220;DHT22;4151;51.110;7.020;2023-04-15T04:57:34;4.10;99.90
8220;DHT22;4151;51.110;7.020;2023-04-15T05:00:01;4.10;99.90
8220;DHT22;4151;51.110;7.020;2023-04-15T05:02:28;4.00;99.90
8220;DHT22;4151;51.110;7.020;2023-04-15T05:04:54;4.00;99.90
8220;DHT22;4151;51.110;7.020;2023-04-15T05:07:19;4.00;99.90
8220;DHT22;4151;51.110;7.020;2023-04-15T05:09:46;4.00;99.90
8220;DHT22;4151;51.110;7.020;2023-04-15T05:12:11;4.00;99.90
8220;DHT22;4151;51.110;7.020;2023-04-15T05:14:40;4.00;99.90
8220;DHT22;4151;51.110;7.020;2023-04-15T05:17:07;4.00;99.90
8220;DHT22;4151;51.110;7.020;2023-04-15T05:19:32;4.00;99.90
8220;DHT22;4151;51.110;7.020;2023-04-15T05:21:58;4.00;99.90
8220;DHT22;4151;51.110;7.020;2023-04-15T05:24:24;3.90;99.90
8220;DHT22;4151;51.110;7.020;2023-04-15T05:26:49;3.90;99.90
8220;DHT22;4151;51.110;7.020;2023-04-15T05:29:15;4.00;99.90
8220;DHT22;4151;51.110;7.020;2023-04-15T05:31:41;4.00;99.90
8220;DHT22;4151;51.110;7.020;2023-04-15T05:34:07;3.90;99.90
8220;DHT22;4151;51.110;7.020;2023-04-15T05:36:33;4.00;99.90
8220;DHT22;4151;51.110;7.020;2023-04-15T05:38:58;4.00;99.90
8220;DHT22;4151;51.110;7.020;2023-04-15T05:41:24;3.90;99.90
8220;DHT22;4151;51.110;7.020;2023-04-15T05:43:50;3.80;99.90
8220;DHT22;4151;51.110;7.020;2023-04-15T05:46:16;3.90;99.90
8220;DHT22;4151;51.110;7.020;2023-04-15T05:48:41;3.90;99.90
8220;DHT22;4151;51.110;7.020;2023-04-15T05:51:07;4.00;99.90
8220;DHT22;4151;51.110;7.020;2023-04-15T05:53:32;4.10;99.90
8220;DHT22;4151;51.110;7.020;2023-04-15T05:55:58;4.30;99.90
8220;DHT22;4151;51.110;7.020;2023-04-15T05:58:24;4.40;99.90
8220;DHT22;4151;51.110;7.020;2023-04-15T06:00:49;4.60;99.90
8220;DHT22;4151;51.110;7.020;2023-04-15T06:03:15;4.60;99.90
8220;DHT22;4151;51.110;7.020;2023-04-15T06:05:41;4.70;99.90
8220;DHT22;4151;51.110;7.020;2023-04-15T06:08:06;4.70;99.90
8220;DHT22;4151;51.110;7.020;2023-04-15T06:10:34;4.90;99.90
8220;DHT22;4151;51.110;7.020;2023-04-15T06:13:01;5.00;99.90
8220;DHT22;4151;51.110;7.020;2023-04-15T06:15:28;5.10;99.90
8220;DHT22;4151;51.110;7.020;2023-04-15T06:17:53;5.20;99.90
8220;DHT22;4151;51.110;7.020;2023-04-15T06:20:19;5.40;99.90
8220;DHT22;4151;51.110;7.020;2023-04-15T06:22:45;5.60;99.90
8220;DHT22;4151;51.110;7.020;2023-04-15T06:25:10;6.10;99.90
8220;DHT22;4151;51.110;7.020;2023-04-15T06:27:36;6.70;99.90
8220;DHT22;4151;51.110;7.020;2023-04-15T06:30:02;7.40;99.90
8220;DHT22;4151;51.110;7.020;2023-04-15T06:32:28;8.00;99.90
8220;DHT22;4151;51.110;7.020;2023-04-15T06:34:54;8.50;99.90
8220;DHT22;4151;51.110;7.020;2023-04-15T06:37:19;8.90;99.90
8220;DHT22;4151;51.110;7.020;2023-04-15T06:39:45;9.20;99.90
8220;DHT22;4151;51.110;7.020;2023-04-15T06:42:11;9.50;99.90
8220;DHT22;4151;51.110;7.020;2023-04-15T06:44:37;9.70;99.90
8220;DHT22;4151;51.110;7.020;2023-04-15T06:47:03;10.00;99.90
8220;DHT22;4151;51.110;7.020;2023-04-15T06:49:28;10.30;99.90
8220;DHT22;4151;51.110;7.020;2023-04-15T06:51:54;10.40;99.90
8220;DHT22;4151;51.110;7.020;2023-04-15T06:54:20;10.60;99.90
8220;DHT22;4151;51.110;7.020;2023-04-15T06:56:45;10.70;99.90
8220;DHT22;4151;51.110;7.020;2023-04-15T06:59:12;10.90;99.90
8220;DHT22;4151;51.110;7.020;2023-04-15T07:01:39;11.00;99.90
8220;DHT22;4151;51.110;7.020;2023-04-15T07:04:05;11.10;99.90
8220;DHT22;4151;51.110;7.020;2023-04-15T07:06:31;11.30;99.90
8220;DHT22;4151;51.110;7.020;2023-04-15T07:08:57;11.50;99.90
8220;DHT22;4151;51.110;7.020;2023-04-15T07:11:24;11.70;99.90
8220;DHT22;4151;51.110;7.020;2023-04-15T07:13:50;11.70;99.90
8220;DHT22;4151;51.110;7.020;2023-04-15T07:16:15;11.80;99.90
8220;DHT22;4151;51.110;7.020;2023-04-15T07:18:41;11.80;99.90
8220;DHT22;4151;51.110;7.020;2023-04-15T07:21:07;11.90;99.90
8220;DHT22;4151;51.110;7.020;2023-04-15T07:23:33;11.90;99.90
8220;DHT22;4151;51.110;7.020;2023-04-15T07:25:59;11.80;99.90
8220;DHT22;4151;51.110;7.020;2023-04-15T07:28:25;11.90;99.90
8220;DHT22;4151;51.110;7.020;2023-04-15T07:30:50;11.90;99.90
8220;DHT22;4151;51.110;7.020;2023-04-15T07:33:16;11.90;99.90
8220;DHT22;4151;51.110;7.020;2023-04-15T07:35:42;11.80;99.90
8220;DHT22;4151;51.110;7.020;2023-04-15T07:38:07;12.00;99.90
8220;DHT22;4151;51.110;7.020;2023-04-15T07:40:33;12.00;99.90
8220;DHT22;4151;51.110;7.020;2023-04-15T07:42:59;12.10;99.90
8220;DHT22;4151;51.110;7.020;2023-04-15T07:45:24;12.20;99.90
8220;DHT22;4151;51.110;7.020;2023-04-15T07:47:50;12.10;99.90
8220;DHT22;4151;51.110;7.020;2023-04-15T07:50:15;12.00;99.90
8220;DHT22;4151;51.110;7.020;2023-04-15T07:52:42;11.90;99.90
8220;DHT22;4151;51.110;7.020;2023-04-15T07:55:09;11.80;99.90
8220;DHT22;4151;51.110;7.020;2023-04-15T07:57:36;12.00;99.90
8220;DHT22;4151;51.110;7.020;2023-04-15T08:00:03;11.90;99.90
8220;DHT22;4151;51.110;7.020;2023-04-15T08:02:32;11.70;99.90
8220;DHT22;4151;51.110;7.020;2023-04-15T08:04:57;11.60;99.90
8220;DHT22;4151;51.110;7.020;2023-04-15T08:07:24;11.80;99.90
8220;DHT22;4151;51.110;7.020;2023-04-15T08:09:49;11.90;99.90
8220;DHT22;4151;51.110;7.020;2023-04-15T08:12:15;12.00;99.90
8220;DHT22;4151;51.110;7.020;2023-04-15T14:33:33;12.30;99.90
8220;DHT22;4151;51.110;7.020;2023-04-15T14:35:59;12.00;99.90
8220;DHT22;4151;51.110;7.020;2023-04-15T14:38:24;11.80;99.90
8220;DHT22;4151;51.110;7.020;2023-04-15T14:40:50;11.70;99.90
8220;DHT22;4151;51.110;7.020;2023-04-15T14:43:15;11.60;99.90
8220;DHT22;4151;51.110;7.020;2023-04-15T14:45:41;11.50;99.90
8220;DHT22;4151;51.110;7.020;2023-04-15T14:48:08;11.60;99.90
8220;DHT22;4151;51.110;7.020;2023-04-15T14:50:35;11.70;99.90
8220;DHT22;4151;51.110;7.020;2023-04-15T14:53:00;11.80;99.90
8220;DHT22;4151;51.110;7.020;2023-04-15T14:55:26;11.90;99.90
8220;DHT22;4151;51.110;7.020;2023-04-15T14:57:52;11.90;99.90
8220;DHT22;4151;51.110;7.020;2023-04-15T15:00:17;11.70;99.90
8220;DHT22;4151;51.110;7.020;2023-04-15T15:02:43;11.70;99.90
8220;DHT22;4151;51.110;7.020;2023-04-15T15:05:09;11.60;99.90
8220;DHT22;4151;51.110;7.020;2023-04-15T15:07:36;11.40;99.90
8220;DHT22;4151;51.110;7.020;2023-04-15T15:10:02;11.30;99.90
8220;DHT22;4151;51.110;7.020;2023-04-15T15:12:28;11.20;99.90
8220;DHT22;4151;51.110;7.020;2023-04-15T15:14:54;11.30;99.90
8220;DHT22;4151;51.110;7.020;2023-04-15T15:17:20;11.20;99.90
8220;DHT22;4151;51.110;7.020;2023-04-15T15:19:46;11.10;99.90
8220;DHT22;4151;51.110;7.020;2023-04-15T15:22:11;11.00;99.90
8220;DHT22;4151;51.110;7.020;2023-04-15T15:24:37;10.90;99.90
8220;DHT22;4151;51.110;7.020;2023-04-15T15:27:03;10.70;99.90
8220;DHT22;4151;51.110;7.020;2023-04-15T15:29:28;10.70;99.90
8220;DHT22;4151;51.110;7.020;2023-04-15T15:31:54;10.60;99.90
8220;DHT22;4151;51.110;7.020;2023-04-15T15:34:19;10.60;99.90
8220;DHT22;4151;51.110;7.020;2023-04-15T15:36:45;10.50;99.90
8220;DHT22;4151;51.110;7.020;2023-04-15T15:39:10;10.50;99.90
8220;DHT22;4151;51.110;7.020;2023-04-15T15:41:36;10.50;99.90
8220;DHT22;4151;51.110;7.020;2023-04-15T15:44:02;10.60;99.90
8220;DHT22;4151;51.110;7.020;2023-04-15T15:46:27;10.60;99.90
8220;DHT22;4151;51.110;7.020;2023-04-15T15:48:56;10.60;99.90
8220;DHT22;4151;51.110;7.020;2023-04-15T15:51:21;10.50;99.90
8220;DHT22;4151;51.110;7.020;2023-04-15T15:53:47;10.40;99.90
8220;DHT22;4151;51.110;7.020;2023-04-15T15:56:12;10.40;99.90
8220;DHT22;4151;51.110;7.020;2023-04-15T15:58:38;10.30;99.90
8220;DHT22;4151;51.110;7.020;2023-04-15T16:01:03;10.20;99.90
8220;DHT22;4151;51.110;7.020;2023-04-15T16:03:30;10.10;99.90
8220;DHT22;4151;51.110;7.020;2023-04-15T16:05:55;10.00;99.90
8220;DHT22;4151;51.110;7.020;2023-04-15T16:08:21;9.90;99.90
8220;DHT22;4151;51.110;7.020;2023-04-15T16:10:46;9.90;99.90
8220;DHT22;4151;51.110;7.020;2023-04-15T16:13:12;9.80;99.90
8220;DHT22;4151;51.110;7.020;2023-04-15T16:15:37;9.80;99.90
8220;DHT22;4151;51.110;7.020;2023-04-15T16:18:04;9.80;99.90
8220;DHT22;4151;51.110;7.020;2023-04-15T16:20:29;9.70;99.90
8220;DHT22;4151;51.110;7.020;2023-04-15T16:22:56;9.60;99.90
8220;DHT22;4151;51.110;7.020;2023-04-15T16:25:22;9.60;99.90
8220;DHT22;4151;51.110;7.020;2023-04-15T16:27:48;9.60;99.90
8220;DHT22;4151;51.110;7.020;2023-04-15T16:30:14;9.60;99.90
8220;DHT22;4151;51.110;7.020;2023-04-15T16:32:40;9.50;99.90
8220;DHT22;4151;51.110;7.020;2023-04-15T16:35:06;9.60;99.90
8220;DHT22;4151;51.110;7.020;2023-04-15T16:37:31;9.50;99.90
8220;DHT22;4151;51.110;7.020;2023-04-15T16:39:58;9.60;99.90
8220;DHT22;4151;51.110;7.020;2023-04-15T16:42:24;9.60;99.90
8220;DHT22;4151;51.110;7.020;2023-04-15T16:44:50;9.50;99.90
8220;DHT22;4151;51.110;7.020;2023-04-15T16:47:15;9.50;99.90
8220;DHT22;4151;51.110;7.020;2023-04-15T16:49:41;9.50;99.90
8220;DHT22;4151;51.110;7.020;2023-04-15T16:52:07;9.50;99.90
8220;DHT22;4151;51.110;7.020;2023-04-15T16:54:32;9.50;99.90
8220;DHT22;4151;51.110;7.020;2023-04-15T16:56:59;9.50;99.90
8220;DHT22;4151;51.110;7.020;2023-04-15T16:59:26;9.50;99.90
8220;DHT22;4151;51.110;7.020;2023-04-15T17:01:55;9.60;99.90
8220;DHT22;4151;51.110;7.020;2023-04-15T17:04:21;9.60;99.90
8220;DHT22;4151;51.110;7.020;2023-04-15T17:06:46;9.60;99.90
8220;DHT22;4151;51.110;7.020;2023-04-15T17:09:12;9.50;99.90
8220;DHT22;4151;51.110;7.020;2023-04-15T17:11:38;9.50;99.90
8220;DHT22;4151;51.110;7.020;2023-04-15T17:14:06;9.50;99.90
8220;DHT22;4151;51.110;7.020;2023-04-15T17:16:31;9.50;99.90
8220;DHT22;4151;51.110;7.020;2023-04-15T17:18:57;9.50;99.90
8220;DHT22;4151;51.110;7.020;2023-04-15T17:21:24;9.50;99.90
8220;DHT22;4151;51.110;7.020;2023-04-15T17:23:50;9.40;99.90
8220;DHT22;4151;51.110;7.020;2023-04-15T17:26:17;9.40;99.90
8220;DHT22;4151;51.110;7.020;2023-04-15T17:28:42;9.40;99.90
8220;DHT22;4151;51.110;7.020;2023-04-15T17:31:08;9.40;99.90
8220;DHT22;4151;51.110;7.020;2023-04-15T17:33:33;9.40;99.90
8220;DHT22;4151;51.110;7.020;2023-04-15T17:35:59;9.40;99.90
8220;DHT22;4151;51.110;7.020;2023-04-15T17:38:25;9.30;99.90
8220;DHT22;4151;51.110;7.020;2023-04-15T17:40:51;9.30;99.90
8220;DHT22;4151;51.110;7.020;2023-04-15T17:43:16;9.30;99.90
8220;DHT22;4151;51.110;7.020;2023-04-15T17:45:42;9.30;99.90
8220;DHT22;4151;51.110;7.020;2023-04-15T17:48:08;9.30;99.90
8220;DHT22;4151;51.110;7.020;2023-04-15T17:50:33;9.20;99.90
8220;DHT22;4151;51.110;7.020;2023-04-15T17:52:59;9.20;99.90
8220;DHT22;4151;51.110;7.020;2023-04-15T17:55:24;9.20;99.90
8220;DHT22;4151;51.110;7.020;2023-04-15T17:57:50;9.20;99.90
8220;DHT22;4151;51.110;7.020;2023-04-15T18:00:16;9.20;99.90
8220;DHT22;4151;51.110;7.020;2023-04-15T18:02:41;9.20;99.90
8220;DHT22;4151;51.110;7.020;2023-04-15T18:05:07;9.20;99.90
8220;DHT22;4151;51.110;7.020;2023-04-15T18:07:33;9.10;99.90
8220;DHT22;4151;51.110;7.020;2023-04-15T18:09:59;9.20;99.90
8220;DHT22;4151;51.110;7.020;2023-04-15T18:24:14;8.90;99.90
8220;DHT22;4151;51.110;7.020;2023-04-15T18:26:40;8.80;99.90
8220;DHT22;4151;51.110;7.020;2023-04-15T18:29:05;8.80;99.90
8220;DHT22;4151;51.110;7.020;2023-04-15T18:31:31;8.80;99.90
8220;DHT22;4151;51.110;7.020;2023-04-15T18:33:57;8.70;99.90
8220;DHT22;4151;51.110;7.020;2023-04-15T18:36:23;8.70;99.90
8220;DHT22;4151;51.110;7.020;2023-04-15T18:38:48;8.60;99.90
8220;DHT22;4151;51.110;7.020;2023-04-15T18:41:14;8.50;99.90
8220;DHT22;4151;51.110;7.020;2023-04-15T18:43:39;8.50;99.90
8220;DHT22;4151;51.110;7.020;2023-04-15T18:46:06;8.50;99.90
8220;DHT22;4151;51.110;7.020;2023-04-15T18:48:36;8.40;99.90
8220;DHT22;4151;51.110;7.020;2023-04-15T18:51:01;8.40;99.90
8220;DHT22;4151;51.110;7.020;2023-04-15T18:53:27;8.40;99.90
8220;DHT22;4151;51.110;7.020;2023-04-15T18:55:53;8.40;99.90
8220;DHT22;4151;51.110;7.020;2023-04-15T18:58:20;8.40;99.90
8220;DHT22;4151;51.110;7.020;2023-04-15T19:00:46;8.30;99.90
8220;DHT22;4151;51.110;7.020;2023-04-15T19:03:11;8.30;99.90
8220;DHT22;4151;51.110;7.020;2023-04-15T19:05:37;8.20;99.90
8220;DHT22;4151;51.110;7.020;2023-04-15T19:08:03;8.30;99.90
8220;DHT22;4151;51.110;7.020;2023-04-15T19:10:28;8.30;99.90
8220;DHT22;4151;51.110;7.020;2023-04-15T19:12:54;8.20;99.90
8220;DHT22;4151;51.110;7.020;2023-04-15T19:15:20;8.10;99.90
8220;DHT22;4151;51.110;7.020;2023-04-15T19:17:45;8.20;99.90
8220;DHT22;4151;51.110;7.020;2023-04-15T19:20:11;8.20;99.90
8220;DHT22;4151;51.110;7.020;2023-04-15T19:22:36;8.10;99.90
8220;DHT22;4151;51.110;7.020;2023-04-15T19:25:03;8.10;99.90
8220;DHT22;4151;51.110;7.020;2023-04-15T19:27:29;8.10;99.90
8220;DHT22;4151;51.110;7.020;2023-04-15T19:29:55;8.10;99.90
8220;DHT22;4151;51.110;7.020;2023-04-15T19:32:20;8.10;99.90
8220;DHT22;4151;51.110;7.020;2023-04-15T19:34:47;8.10;99.90
8220;DHT22;4151;51.110;7.020;2023-04-15T19:37:12;8.00;99.90
8220;DHT22;4151;51.110;7.020;2023-04-15T19:39:39;8.10;99.90
8220;DHT22;4151;51.110;7.020;2023-04-15T19:42:04;8.00;99.90
8220;DHT22;4151;51.110;7.020;2023-04-15T19:44:30;8.00;99.90
8220;DHT22;4151;51.110;7.020;2023-04-15T19:46:56;8.00;99.90
8220;DHT22;4151;51.110;7.020;2023-04-15T19:49:21;8.00;99.90
8220;DHT22;4151;51.110;7.020;2023-04-15T19:51:48;8.00;99.90
8220;DHT22;4151;51.110;7.020;2023-04-15T19:54:14;8.00;99.90
8220;DHT22;4151;51.110;7.020;2023-04-15T19:56:40;8.00;99.90
8220;DHT22;4151;51.110;7.020;2023-04-15T19:59:05;8.00;99.90
8220;DHT22;4151;51.110;7.020;2023-04-15T20:01:31;8.00;99.90
8220;DHT22;4151;51.110;7.020;2023-04-15T20:03:57;7.90;99.90
8220;DHT22;4151;51.110;7.020;2023-04-15T20:06:22;7.80;99.90
8220;DHT22;4151;51.110;7.020;2023-04-15T20:08:48;7.90;99.90
8220;DHT22;4151;51.110;7.020;2023-04-15T20:11:14;7.90;99.90
8220;DHT22;4151;51.110;7.020;2023-04-15T20:13:40;7.90;99.90
8220;DHT22;4151;51.110;7.020;2023-04-15T20:16:05;7.90;99.90
8220;DHT22;4151;51.110;7.020;2023-04-15T20:18:32;7.90;99.90
8220;DHT22;4151;51.110;7.020;2023-04-15T20:20:58;7.90;99.90
8220;DHT22;4151;51.110;7.020;2023-04-15T20:23:24;7.90;99.90
8220;DHT22;4151;51.110;7.020;2023-04-15T20:25:50;7.90;99.90
8220;DHT22;4151;51.110;7.020;2023-04-15T20:28:16;7.90;99.90
8220;DHT22;4151;51.110;7.020;2023-04-15T20:30:43;7.90;99.90
8220;DHT22;4151;51.110;7.020;2023-04-15T20:33:08;7.90;99.90
8220;DHT22;4151;51.110;7.020;2023-04-15T20:35:34;7.90;99.90
8220;DHT22;4151;51.110;7.020;2023-04-15T20:38:00;7.80;99.90
8220;DHT22;4151;51.110;7.020;2023-04-15T20:40:27;7.80;99.90
8220;DHT22;4151;51.110;7.020;2023-04-15T20:42:52;7.80;99.90
8220;DHT22;4151;51.110;7.020;2023-04-15T20:45:18;7.80;99.90
8220;DHT22;4151;51.110;7.020;2023-04-15T20:47:43;7.90;99.90
8220;DHT22;4151;51.110;7.020;2023-04-15T20:50:09;7.90;99.90
8220;DHT22;4151;51.110;7.020;2023-04-15T20:52:35;7.90;99.90
8220;DHT22;4151;51.110;7.020;2023-04-15T20:55:01;7.80;99.90
8220;DHT22;4151;51.110;7.020;2023-04-15T20:57:26;7.80;99.90
8220;DHT22;4151;51.110;7.020;2023-04-15T20:59:54;7.80;99.90
8220;DHT22;4151;51.110;7.020;2023-04-15T21:02:22;7.70;99.90
8220;DHT22;4151;51.110;7.020;2023-04-15T21:04:47;7.70;99.90
8220;DHT22;4151;51.110;7.020;2023-04-15T21:07:13;7.80;99.90
8220;DHT22;4151;51.110;7.020;2023-04-15T21:09:38;7.70;99.90
8220;DHT22;4151;51.110;7.020;2023-04-15T21:12:06;7.70;99.90
8220;DHT22;4151;51.110;7.020;2023-04-15T21:14:31;7.80;99.90
8220;DHT22;4151;51.110;7.020;2023-04-15T21:16:59;7.80;99.90
8220;DHT22;4151;51.110;7.020;2023-04-15T21:19:33;7.80;99.90
8220;DHT22;4151;51.110;7.020;2023-04-15T21:21:59;7.80;99.90
8220;DHT22;4151;51.110;7.020;2023-04-15T21:24:25;7.80;99.90
8220;DHT22;4151;51.110;7.020;2023-04-15T21:26:50;7.80;99.90
8220;DHT22;4151;51.110;7.020;2023-04-15T21:29:16;7.70;99.90
8220;DHT22;4151;51.110;7.020;2023-04-15T21:31:42;7.70;99.90
8220;DHT22;4151;51.110;7.020;2023-04-15T21:34:08;7.70;99.90
8220;DHT22;4151;51.110;7.020;2023-04-15T21:36:33;7.80;99.90
8220;DHT22;4151;51.110;7.020;2023-04-15T21:38:59;7.80;99.90
8220;DHT22;4151;51.110;7.020;2023-04-15T21:41:25;7.70;99.90
8220;DHT22;4151;51.110;7.020;2023-04-15T21:43:51;7.70;99.90
8220;DHT22;4151;51.110;7.020;2023-04-15T21:46:17;7.70;99.90
8220;DHT22;4151;51.110;7.020;2023-04-15T21:48:42;7.70;99.90
8220;DHT22;4151;51.110;7.020;2023-04-15T21:51:08;7.60;99.90
8220;DHT22;4151;51.110;7.020;2023-04-15T21:53:33;7.70;99.90
8220;DHT22;4151;51.110;7.020;2023-04-15T21:55:59;7.70;99.90
8220;DHT22;4151;51.110;7.020;2023-04-15T21:58:25;7.70;99.90
8220;DHT22;4151;51.110;7.020;2023-04-15T22:00:51;7.60;99.90
8220;DHT22;4151;51.110;7.020;2023-04-15T22:03:17;7.60;99.90
8220;DHT22;4151;51.110;7.020;2023-04-15T22:05:44;7.60;99.90
8220;DHT22;4151;51.110;7.020;2023-04-15T22:08:10;7.60;99.90
8220;DHT22;4151;51.110;7.020;2023-04-15T22:10:39;7.60;99.90
8220;DHT22;4151;51.110;7.020;2023-04-15T22:13:05;7.60;99.90
8220;DHT22;4151;51.110;7.020;2023-04-15T22:15:33;7.60;99.90
8220;DHT22;4151;51.110;7.020;2023-04-15T22:18:00;7.60;99.90
8220;DHT22;4151;51.110;7.020;2023-04-15T22:20:25;7.60;99.90
8220;DHT22;4151;51.110;7.020;2023-04-15T22:22:51;7.70;99.90
8220;DHT22;4151;51.110;7.020;2023-04-15T22:25:17;7.70;99.90
8220;DHT22;4151;51.110;7.020;2023-04-15T22:27:42;7.70;99.90
8220;DHT22;4151;51.110;7.020;2023-04-15T22:30:09;7.70;99.90
8220;DHT22;4151;51.110;7.020;2023-04-15T22:32:35;7.70;99.90
8220;DHT22;4151;51.110;7.020;2023-04-15T22:35:00;7.60;99.90
8220;DHT22;4151;51.110;7.020;2023-04-15T22:37:26;7.70;99.90